createdAt,value
2023-01-03T00:04:49.857Z,102652.94
2023-01-03T00:09:52.327Z,102650.28
2023-01-03T00:14:54.472Z,102652.09
2023-01-03T00:19:56.760Z,102649.44
2023-01-03T00:24:58.908Z,102648.59
2023-01-03T00:30:01.233Z,102653.03
2023-01-03T00:35:05.553Z,102653.97
2023-01-03T00:40:08.513Z,102657.47
2023-01-03T00:45:11.027Z,102646.88
2023-01-03T00:50:13.255Z,102647.63
2023-01-03T00:55:15.508Z,102651.25
2023-01-03T01:00:17.831Z,102651.31
2023-01-03T01:05:20.059Z,102650.50
2023-01-03T01:10:22.615Z,102650.50
2023-01-03T01:15:24.872Z,102661.97
2023-01-03T01:20:27.051Z,102655.75
2023-01-03T01:25:29.219Z,102662.78
2023-01-03T01:30:31.444Z,102661.91
2023-01-03T01:35:33.645Z,102674.31
2023-01-03T01:40:35.941Z,102674.31
2023-01-03T01:45:38.915Z,102671.72
2023-01-03T01:50:55.110Z,102667.34
2023-01-03T01:56:08.648Z,102670.00
2023-01-03T02:01:14.072Z,102664.69
2023-01-03T02:06:18.208Z,102677.09
2023-01-03T02:11:32.143Z,102687.00
2023-01-03T02:16:59.660Z,102683.34
2023-01-03T02:22:30.659Z,102688.56
2023-01-03T02:27:51.056Z,102684.22
2023-01-03T02:33:18.999Z,102684.28
2023-01-03T02:38:33.339Z,102681.47
2023-01-03T02:44:04.486Z,102674.44
2023-01-03T02:49:09.028Z,102681.47
2023-01-03T02:54:15.838Z,102678.06
2023-01-03T02:59:24.775Z,102686.00
2023-01-03T03:04:28.055Z,102689.53
2023-01-03T03:09:31.430Z,102681.63
2023-01-03T03:14:50.574Z,102663.94
2023-01-03T03:20:28.350Z,102671.78
2023-01-03T03:25:40.381Z,102675.31
2023-01-03T03:30:45.045Z,102668.38
2023-01-03T03:35:54.123Z,102675.47
2023-01-03T03:41:36.506Z,102674.59
2023-01-03T03:46:54.277Z,102681.69
2023-01-03T03:52:01.005Z,102681.63
2023-01-03T03:57:25.996Z,102686.13
2023-01-03T04:02:30.811Z,102685.22
2023-01-03T04:07:32.996Z,102681.69
2023-01-03T04:12:35.176Z,102678.13
2023-01-03T04:17:37.503Z,102682.56
2023-01-03T04:22:40.179Z,102675.53
2023-01-03T04:27:42.363Z,102679.91
2023-01-03T04:32:44.581Z,102674.59
2023-01-03T04:37:46.685Z,102664.78
2023-01-03T04:43:07.450Z,102671.09
2023-01-03T04:48:09.596Z,102676.41
2023-01-03T04:53:15.247Z,102681.69
2023-01-03T04:58:18.227Z,102672.88
2023-01-03T05:03:25.841Z,102671.94
2023-01-03T05:08:30.459Z,102672.81
2023-01-03T05:13:34.025Z,102682.56
2023-01-03T05:18:36.402Z,102695.88
2023-01-03T05:23:56.888Z,102694.16
2023-01-03T05:28:59.458Z,102702.97
2023-01-03T05:34:01.765Z,102710.94
2023-01-03T05:39:05.209Z,102715.38
2023-01-03T05:44:07.588Z,102733.94
2023-01-03T05:49:09.891Z,102739.25
2023-01-03T05:54:16.475Z,102741.03
2023-01-03T05:59:19.302Z,102740.28
2023-01-03T06:04:21.538Z,102739.19
2023-01-03T06:09:23.768Z,102745.34
2023-01-03T06:14:26.006Z,102755.97
2023-01-03T06:19:28.298Z,102757.81
2023-01-03T06:24:30.509Z,102765.78
2023-01-03T06:29:32.794Z,102779.91
2023-01-03T06:34:34.979Z,102779.13
2023-01-03T06:39:37.273Z,102789.75
2023-01-03T06:44:39.401Z,102799.47
2023-01-03T06:50:00.069Z,102788.00
2023-01-03T06:55:03.035Z,102786.22
2023-01-03T07:00:05.665Z,102795.09
2023-01-03T07:05:08.857Z,102801.28
2023-01-03T07:10:10.951Z,102795.03
2023-01-03T07:15:13.151Z,102804.69
2023-01-03T07:20:15.324Z,102800.34
2023-01-03T07:25:17.536Z,102811.00
2023-01-03T07:30:19.637Z,102815.47
2023-01-03T07:35:21.874Z,102814.53
2023-01-03T07:40:24.107Z,102809.22
2023-01-03T07:45:26.293Z,102819.84
2023-01-03T07:50:28.499Z,102839.31
2023-01-03T07:55:35.319Z,102851.72
2023-01-03T08:00:37.865Z,102857.09
2023-01-03T08:05:47.101Z,102859.69
2023-01-03T08:11:07.963Z,102864.13
2023-01-03T08:16:12.717Z,102866.78
2023-01-03T08:21:16.351Z,102869.38
2023-01-03T08:26:19.099Z,102886.19
2023-01-03T08:31:28.161Z,102876.50
2023-01-03T08:36:40.578Z,102886.16
2023-01-03T08:41:48.513Z,102898.47
2023-01-03T08:46:54.639Z,102905.56
2023-01-03T08:51:56.932Z,102911.84
2023-01-03T08:56:59.119Z,102912.78
2023-01-03T09:02:02.350Z,102921.53
2023-01-03T09:07:05.544Z,102917.16
2023-01-03T09:12:07.951Z,102926.84
2023-01-03T09:17:10.214Z,102937.41
2023-01-03T09:22:12.404Z,102930.38
2023-01-03T09:27:14.579Z,102933.94
2023-01-03T09:32:16.836Z,102941.91
2023-01-03T09:37:19.147Z,102956.09
2023-01-03T09:42:42.651Z,102954.28
2023-01-03T09:47:46.249Z,102958.69
2023-01-03T09:53:07.951Z,102957.88
2023-01-03T09:58:33.781Z,102965.78
2023-01-03T10:04:04.419Z,102966.69
2023-01-03T10:09:09.454Z,102956.03
2023-01-03T10:14:29.450Z,102964.91
2023-01-03T10:19:58.534Z,102963.13
2023-01-03T10:25:19.487Z,102953.38
2023-01-03T10:30:30.698Z,102961.28
2023-01-03T10:35:34.580Z,102963.00
2023-01-03T10:40:45.434Z,102958.63
2023-01-03T10:45:59.859Z,102957.81
2023-01-03T10:51:05.264Z,102954.25
2023-01-03T10:56:07.883Z,102948.00
2023-01-03T11:01:30.533Z,102942.75
2023-01-03T11:06:33.733Z,102954.19
2023-01-03T11:11:40.558Z,102951.53
2023-01-03T11:16:42.797Z,102954.03
2023-01-03T11:21:51.027Z,102944.34
2023-01-03T11:27:28.103Z,102947.09
2023-01-03T11:32:34.051Z,102947.94
2023-01-03T11:37:45.202Z,102952.31
2023-01-03T11:42:57.316Z,102950.53
2023-01-03T11:48:15.949Z,102941.69
2023-01-03T11:53:34.610Z,102939.03
2023-01-03T11:59:04.235Z,102928.53
2023-01-03T12:04:44.404Z,102933.75
2023-01-03T12:10:09.281Z,102931.19
2023-01-03T12:15:23.410Z,102928.44
2023-01-03T12:20:45.604Z,102918.69
2023-01-03T12:25:53.389Z,102915.97
2023-01-03T12:31:07.742Z,102902.72
2023-01-03T12:36:38.514Z,102882.41
2023-01-03T12:41:48.361Z,102882.41
2023-01-03T12:46:55.729Z,102880.69
2023-01-03T12:51:59.614Z,102880.56
2023-01-03T12:57:27.492Z,102873.59
2023-01-03T13:02:29.912Z,102882.38
2023-01-03T13:07:34.632Z,102888.53
2023-01-03T13:12:41.205Z,102886.75
2023-01-03T13:17:49.095Z,102892.91
2023-01-03T13:22:53.842Z,102880.44
2023-01-03T13:28:05.847Z,102891.97
2023-01-03T13:33:10.812Z,102882.22
2023-01-03T13:38:27.264Z,102880.50
2023-01-03T13:43:36.139Z,102884.00
2023-01-03T13:48:52.304Z,102873.59
2023-01-03T13:54:25.267Z,102884.88
2023-01-03T13:59:35.785Z,102891.13
2023-01-03T14:04:49.901Z,102888.47
2023-01-03T14:10:01.004Z,102888.38
2023-01-03T14:15:26.037Z,102889.25
2023-01-03T14:20:34.470Z,102878.63
2023-01-03T14:25:42.786Z,102882.22
2023-01-03T14:30:46.575Z,102884.81
2023-01-03T14:35:48.974Z,102898.13
2023-01-03T14:40:52.028Z,102897.22
2023-01-03T14:45:57.623Z,102885.72
2023-01-03T14:51:04.804Z,102896.34
2023-01-03T14:56:07.206Z,102896.28
2023-01-03T15:01:11.623Z,102897.16
2023-01-03T15:06:24.649Z,102906.03
2023-01-03T15:11:56.601Z,102914.00
2023-01-03T15:17:12.410Z,102914.00
2023-01-03T15:22:26.955Z,102925.47
2023-01-03T15:27:38.079Z,102924.59
2023-01-03T15:32:57.910Z,102929.91
2023-01-03T15:38:01.868Z,102938.72
2023-01-03T15:43:20.273Z,102940.56
2023-01-03T15:48:23.078Z,102942.25
2023-01-03T15:53:41.222Z,102937.88
2023-01-03T15:58:47.733Z,102943.13
2023-01-03T16:03:51.532Z,102948.41
2023-01-03T16:08:53.909Z,102959.03
2023-01-03T16:13:59.798Z,102960.75
2023-01-03T16:19:05.604Z,102966.94
2023-01-03T16:24:08.021Z,102974.81
2023-01-03T16:29:10.297Z,102981.91
2023-01-03T16:34:19.164Z,102983.78
2023-01-03T16:39:22.445Z,102993.50
2023-01-03T16:44:24.702Z,102994.38
2023-01-03T16:49:29.607Z,103005.88
2023-01-03T16:54:32.109Z,103012.94
2023-01-03T16:59:34.613Z,103017.34
2023-01-03T17:04:37.260Z,103013.88
2023-01-03T17:09:40.680Z,103022.69
2023-01-03T17:14:42.895Z,103020.91
2023-01-03T17:20:04.220Z,103020.91
2023-01-03T17:25:10.378Z,103037.69
2023-01-03T17:30:19.205Z,103048.34
2023-01-03T17:35:21.463Z,103052.75
2023-01-03T17:40:33.165Z,103065.09
2023-01-03T17:45:54.588Z,103070.31
2023-01-03T17:50:57.782Z,103072.97
2023-01-03T17:56:00.102Z,103079.22
2023-01-03T18:01:02.855Z,103070.66
2023-01-03T18:06:18.842Z,103089.88
2023-01-03T18:11:25.446Z,103088.97
2023-01-03T18:16:27.987Z,103096.94
2023-01-03T18:21:30.326Z,103086.47
2023-01-03T18:26:39.591Z,103094.28
2023-01-03T18:31:42.668Z,103102.22
2023-01-03T18:36:51.169Z,103116.41
2023-01-03T18:41:53.580Z,103110.34
2023-01-03T18:46:55.903Z,103119.03
2023-01-03T18:51:58.574Z,103120.66
2023-01-03T18:57:00.773Z,103119.84
2023-01-03T19:02:03.068Z,103113.97
2023-01-03T19:07:05.464Z,103129.63
2023-01-03T19:12:17.526Z,103125.25
2023-01-03T19:17:20.449Z,103122.59
2023-01-03T19:22:30.936Z,103126.97
2023-01-03T19:27:38.367Z,103133.13
2023-01-03T19:32:41.032Z,103120.97
2023-01-03T19:37:43.236Z,103133.19
2023-01-03T19:42:54.443Z,103126.16
2023-01-03T19:47:58.873Z,103135.00
2023-01-03T19:53:04.645Z,103144.69
2023-01-03T19:58:22.238Z,103145.59
2023-01-03T20:03:29.366Z,103149.13
2023-01-03T20:08:32.009Z,103153.56
2023-01-03T20:13:34.318Z,103158.88
2023-01-03T20:18:37.029Z,103161.47
2023-01-03T20:23:45.923Z,103162.38
2023-01-03T20:28:48.026Z,103161.53
2023-01-03T20:33:50.257Z,103173.00
2023-01-03T20:38:56.163Z,103171.22
2023-01-03T20:43:58.613Z,103168.56
2023-01-03T20:49:02.604Z,103171.13
2023-01-03T20:54:05.179Z,103175.50
2023-01-03T20:59:07.467Z,103177.38
2023-01-03T21:04:12.217Z,103177.38
2023-01-03T21:09:14.555Z,103192.44
2023-01-03T21:14:16.713Z,103194.22
2023-01-03T21:19:21.602Z,103194.22
2023-01-03T21:24:25.463Z,103194.22
2023-01-03T21:29:28.037Z,103198.72
2023-01-03T21:34:31.436Z,103203.97
2023-01-03T21:39:33.679Z,103196.00
2023-01-03T21:44:35.853Z,103201.31
2023-01-03T21:49:38.043Z,103209.28
2023-01-03T21:54:40.190Z,103202.22
2023-01-03T21:59:42.488Z,103214.59
2023-01-03T22:04:46.225Z,103219.88
2023-01-03T22:10:06.810Z,103219.03
2023-01-03T22:15:09.532Z,103221.66
2023-01-03T22:20:13.985Z,103226.13
2023-01-03T22:25:18.436Z,103230.50
2023-01-03T22:30:21.059Z,103229.69
2023-01-03T22:35:23.361Z,103241.16
2023-01-03T22:40:25.558Z,103234.06
2023-01-03T22:45:27.754Z,103244.69
2023-01-03T22:50:29.958Z,103250.84
2023-01-03T22:55:32.617Z,103256.16
2023-01-03T23:00:34.799Z,103249.13
2023-01-03T23:05:37.433Z,103245.66
2023-01-03T23:10:39.752Z,103261.47
2023-01-03T23:15:41.927Z,103255.25
2023-01-03T23:20:49.163Z,103258.75
2023-01-03T23:25:51.347Z,103246.38
2023-01-03T23:30:53.470Z,103265.00
2023-01-03T23:35:55.830Z,103254.44
2023-01-03T23:40:57.988Z,103250.91
2023-01-03T23:46:00.265Z,103252.69
2023-01-03T23:51:07.421Z,103252.69
2023-01-03T23:56:12.995Z,103246.53
